Time;durP1;ratioP1;P1;durP2;ratioP2;P2;SDS_P1;SDS_P2;PMS_P1;PMS_P2;Temp;Humidity;BMP_temperature;BMP_pressure;BME280_temperature;BME280_humidity;BME280_pressure;Samples;Min_cycle;Max_cycle;Signal;HPM_P1;HPM_P2
2021/11/07 00:00:01;;;;;;;6.30;6.00;;;11.20;99.90;;;;;;5053147;28;20177;-65
2021/11/07 00:05:24;;;;;;;6.83;6.50;;;11.20;99.90;;;;;;5053281;28;20198;-64
2021/11/07 00:08:02;;;;;;;6.53;6.23;;;11.20;99.90;;;;;;5052739;28;20202;-65
2021/11/07 00:13:14;;;;;;;6.30;5.90;;;11.20;99.90;;;;;;5052810;28;20178;-64
2021/11/07 00:15:41;;;;;;;6.60;6.20;;;11.20;99.90;;;;;;5053064;28;20202;-63
2021/11/07 00:18:10;;;;;;;6.40;6.00;;;11.10;99.90;;;;;;5052711;28;20257;-65
2021/11/07 00:20:41;;;;;;;6.70;6.20;;;11.20;99.90;;;;;;5052710;28;20229;-65
2021/11/07 00:23:56;;;;;;;7.40;6.57;;;11.20;99.90;;;;;;5052615;28;20175;-64
2021/11/07 00:28:36;;;;;;;6.80;6.20;;;11.20;99.90;;;;;;5052718;28;20214;-64
2021/11/07 00:39:00;;;;;;;6.43;6.03;;;11.20;99.90;;;;;;5052618;28;20266;-67
2021/11/07 00:41:34;;;;;;;6.73;5.90;;;11.30;99.90;;;;;;5052311;28;20170;-64
2021/11/07 00:44:10;;;;;;;6.60;6.10;;;11.20;99.90;;;;;;5052292;28;20173;-65
2021/11/07 00:46:49;;;;;;;6.43;6.07;;;11.20;99.90;;;;;;5052441;28;20228;-65
2021/11/07 00:49:22;;;;;;;7.50;6.87;;;11.20;99.90;;;;;;5052154;28;20717;-65
2021/11/07 00:54:29;;;;;;;6.50;6.07;;;11.20;99.90;;;;;;5052149;28;20253;-65
2021/11/07 00:56:58;;;;;;;6.90;6.50;;;11.20;99.90;;;;;;5052112;28;20186;-64
2021/11/07 01:02:04;;;;;;;7.57;7.00;;;11.20;99.90;;;;;;5052003;28;20179;-65
2021/11/07 01:04:30;;;;;;;7.17;6.77;;;11.10;99.90;;;;;;5051919;28;20202;-64
2021/11/07 01:06:56;;;;;;;7.20;6.80;;;11.10;99.90;;;;;;5052045;28;20524;-65
2021/11/07 01:09:22;;;;;;;7.10;6.70;;;11.10;99.90;;;;;;5051523;28;20187;-64
2021/11/07 01:11:47;;;;;;;6.73;6.23;;;11.00;99.90;;;;;;5051920;28;20171;-64
2021/11/07 01:14:15;;;;;;;7.03;6.53;;;11.00;99.90;;;;;;5051392;28;20179;-64
2021/11/07 01:16:42;;;;;;;6.40;6.00;;;11.00;99.90;;;;;;5051915;28;20534;-65
2021/11/07 01:19:08;;;;;;;7.20;6.70;;;11.00;99.90;;;;;;5051295;28;20173;-64
2021/11/07 01:21:40;;;;;;;8.73;7.97;;;11.00;99.90;;;;;;5050937;28;20171;-65
2021/11/07 01:26:48;;;;;;;7.13;6.73;;;10.90;99.90;;;;;;5051852;28;20166;-64
2021/11/07 01:29:16;;;;;;;7.13;6.67;;;10.90;99.90;;;;;;5051058;28;20217;-64
2021/11/07 01:31:43;;;;;;;7.20;6.70;;;10.90;99.90;;;;;;5051684;28;20641;-64
2021/11/07 01:34:17;;;;;;;7.17;6.73;;;10.90;99.90;;;;;;5051060;28;20655;-65
2021/11/07 01:36:54;;;;;;;7.20;6.80;;;10.90;99.90;;;;;;5051764;28;20194;-65
2021/11/07 01:39:33;;;;;;;7.03;6.73;;;10.70;99.90;;;;;;5051148;28;20658;-63
2021/11/07 01:44:26;;;;;;;7.63;7.13;;;10.60;99.90;;;;;;5051374;28;20226;-64
2021/11/07 01:46:55;;;;;;;7.13;6.73;;;10.60;99.90;;;;;;5051421;28;20171;-65
2021/11/07 01:49:24;;;;;;;7.10;6.67;;;10.60;99.90;;;;;;5051072;28;20174;-64
2021/11/07 01:51:53;;;;;;;6.40;6.10;;;10.60;99.90;;;;;;5051450;28;20167;-64
2021/11/07 01:54:26;;;;;;;7.47;7.07;;;10.50;99.90;;;;;;5050978;28;20178;-67
2021/11/07 01:56:52;;;;;;;6.83;6.53;;;10.50;99.90;;;;;;5051562;28;20261;-66
2021/11/07 01:59:18;;;;;;;7.00;6.60;;;10.40;99.90;;;;;;5050869;28;20270;-66
2021/11/07 02:01:49;;;;;;;6.80;6.40;;;10.40;99.90;;;;;;5051132;28;20212;-66
2021/11/07 02:04:15;;;;;;;7.13;6.60;;;10.30;99.90;;;;;;5051225;28;20674;-67
2021/11/07 02:06:41;;;;;;;7.30;6.80;;;10.30;99.90;;;;;;5051490;28;20186;-66
2021/11/07 02:09:06;;;;;;;7.37;7.00;;;10.30;99.90;;;;;;5051208;28;20539;-66
2021/11/07 02:11:32;;;;;;;7.70;7.20;;;10.20;99.90;;;;;;5051069;28;20624;-66
2021/11/07 02:13:58;;;;;;;7.37;6.97;;;10.10;99.90;;;;;;5051211;28;20181;-66
2021/11/07 02:16:23;;;;;;;8.17;7.67;;;10.00;99.90;;;;;;5051028;28;20324;-67
2021/11/07 02:18:49;;;;;;;7.07;6.53;;;10.00;99.90;;;;;;5051358;28;20270;-66
2021/11/07 02:21:15;;;;;;;8.20;7.60;;;10.00;99.90;;;;;;5051081;28;20171;-67
2021/11/07 02:23:41;;;;;;;7.63;7.03;;;9.90;99.90;;;;;;5051329;28;20175;-66
2021/11/07 02:26:07;;;;;;;7.53;7.03;;;9.80;99.90;;;;;;5050814;28;20206;-66
2021/11/07 02:28:35;;;;;;;7.90;7.40;;;9.70;99.90;;;;;;5051183;28;20178;-67
2021/11/07 02:31:02;;;;;;;8.77;8.07;;;9.70;99.90;;;;;;5049453;28;20179;-66
2021/11/07 02:33:28;;;;;;;7.73;7.20;;;9.70;99.90;;;;;;5054910;28;20644;-66
2021/11/07 02:35:54;;;;;;;8.53;8.03;;;9.70;99.90;;;;;;5054613;28;20210;-66
2021/11/07 02:38:20;;;;;;;9.83;9.07;;;9.70;99.90;;;;;;5055058;28;20264;-67
2021/11/07 02:40:46;;;;;;;8.77;8.23;;;9.60;99.90;;;;;;5054718;28;20206;-67
2021/11/07 02:43:12;;;;;;;7.80;7.30;;;9.60;99.90;;;;;;5054883;28;20175;-64
2021/11/07 02:45:37;;;;;;;8.00;7.50;;;9.50;99.90;;;;;;5054764;28;20195;-64
2021/11/07 02:48:04;;;;;;;8.67;8.17;;;9.60;99.90;;;;;;5054328;28;20189;-65
2021/11/07 02:50:29;;;;;;;9.60;8.67;;;9.60;99.90;;;;;;5054395;28;20688;-65
2021/11/07 02:52:55;;;;;;;7.60;7.10;;;9.70;99.90;;;;;;5054365;28;20183;-66
2021/11/07 02:55:22;;;;;;;9.33;8.80;;;9.70;99.90;;;;;;5054257;28;20314;-64
2021/11/07 02:57:48;;;;;;;8.93;8.23;;;9.70;99.90;;;;;;5054030;28;20186;-64
2021/11/07 03:00:16;;;;;;;8.23;7.63;;;9.80;99.90;;;;;;5054049;28;20167;-64
2021/11/07 03:02:43;;;;;;;8.43;7.83;;;9.80;99.90;;;;;;5054172;28;20671;-65
2021/11/07 03:05:11;;;;;;;7.40;7.00;;;9.80;99.90;;;;;;5054342;28;20206;-64
2021/11/07 03:07:41;;;;;;;7.80;7.13;;;9.90;99.90;;;;;;5054495;28;20452;-64
2021/11/07 03:10:08;;;;;;;8.10;7.60;;;9.90;99.90;;;;;;5053908;28;20229;-64
2021/11/07 03:12:36;;;;;;;8.00;7.30;;;9.90;99.90;;;;;;5053979;28;20211;-65
2021/11/07 03:15:03;;;;;;;8.73;8.23;;;9.90;99.90;;;;;;5053992;28;20222;-65
2021/11/07 03:17:29;;;;;;;7.43;7.03;;;9.90;99.90;;;;;;5053927;28;20177;-64
2021/11/07 03:19:54;;;;;;;6.97;6.47;;;9.90;99.90;;;;;;5053594;28;20183;-66
2021/11/07 03:22:24;;;;;;;8.17;7.63;;;9.90;99.90;;;;;;5054066;28;20210;-65
2021/11/07 03:24:54;;;;;;;7.47;7.07;;;9.90;99.90;;;;;;5053741;28;20261;-65
2021/11/07 03:27:26;;;;;;;7.70;7.30;;;9.90;99.90;;;;;;5053984;28;20182;-65
2021/11/07 03:29:54;;;;;;;7.83;7.43;;;9.90;99.90;;;;;;5052098;28;20179;-64
2021/11/07 03:32:26;;;;;;;7.33;6.93;;;10.00;99.90;;;;;;5053853;28;20648;-64
2021/11/07 03:34:59;;;;;;;7.73;7.23;;;10.00;99.90;;;;;;5053234;28;20260;-65
2021/11/07 03:37:35;;;;;;;8.47;7.67;;;10.00;99.90;;;;;;5053901;28;20571;-65
2021/11/07 03:40:03;;;;;;;7.50;7.10;;;10.00;99.90;;;;;;5053102;28;20262;-65
2021/11/07 03:42:29;;;;;;;8.37;7.87;;;10.00;99.90;;;;;;5053676;28;20209;-66
2021/11/07 03:44:55;;;;;;;7.40;7.00;;;10.00;99.90;;;;;;5052113;28;20564;-65
2021/11/07 03:47:21;;;;;;;7.60;7.10;;;10.00;99.90;;;;;;5053711;28;20183;-65
2021/11/07 03:49:48;;;;;;;7.63;7.23;;;10.10;99.90;;;;;;5052821;28;20205;-66
2021/11/07 03:52:14;;;;;;;8.53;8.00;;;10.10;99.90;;;;;;5053557;28;20666;-66
2021/11/07 03:57:11;;;;;;;7.60;7.10;;;10.10;99.90;;;;;;5091579;28;20205;-72
2021/11/07 03:59:38;;;;;;;7.57;7.07;;;10.10;99.90;;;;;;5094571;28;20177;-68
2021/11/07 04:02:03;;;;;;;7.50;7.10;;;10.10;99.90;;;;;;5074768;28;20174;-67
2021/11/07 04:04:29;;;;;;;8.10;7.40;;;10.00;99.90;;;;;;5074782;28;20551;-69
2021/11/07 04:06:56;;;;;;;7.87;7.33;;;10.10;99.90;;;;;;5074783;28;20655;-69
2021/11/07 04:09:22;;;;;;;7.93;7.33;;;10.10;99.90;;;;;;5074332;28;20190;-70
2021/11/07 04:11:47;;;;;;;8.10;7.60;;;10.20;99.90;;;;;;5092363;28;20178;-70
2021/11/07 04:14:13;;;;;;;8.30;7.70;;;10.10;99.90;;;;;;5094547;28;20173;-70
2021/11/07 04:16:40;;;;;;;7.63;7.13;;;10.20;99.90;;;;;;5078711;28;20225;-70
2021/11/07 04:19:07;;;;;;;7.77;7.27;;;10.20;99.90;;;;;;5074327;28;20200;-69
2021/11/07 04:21:32;;;;;;;8.67;8.10;;;10.20;99.90;;;;;;5088390;28;20177;-70
2021/11/07 04:23:58;;;;;;;8.07;7.57;;;10.20;99.90;;;;;;5094679;28;20269;-68
2021/11/07 04:26:24;;;;;;;7.80;7.40;;;10.20;99.90;;;;;;5081498;28;20209;-71
2021/11/07 04:28:50;;;;;;;7.10;6.70;;;10.20;99.90;;;;;;5074186;28;20178;-69
2021/11/07 04:31:16;;;;;;;8.20;7.70;;;10.20;99.90;;;;;;5073159;28;20596;-70
2021/11/07 04:33:42;;;;;;;7.60;7.20;;;10.20;99.90;;;;;;5074173;28;20266;-69
2021/11/07 04:36:08;;;;;;;7.90;7.40;;;10.20;99.90;;;;;;5074015;28;20220;-70
2021/11/07 04:38:35;;;;;;;7.53;7.13;;;10.30;99.90;;;;;;5074397;28;20254;-69
2021/11/07 04:41:01;;;;;;;7.70;7.30;;;10.30;99.90;;;;;;5081384;28;20174;-71
2021/11/07 04:43:27;;;;;;;7.67;7.27;;;10.30;99.90;;;;;;5093994;28;20201;-71
2021/11/07 04:45:53;;;;;;;8.57;7.80;;;10.30;99.90;;;;;;5094396;28;20189;-69
2021/11/07 04:48:19;;;;;;;8.80;8.20;;;10.40;99.90;;;;;;5093693;28;20177;-71
2021/11/07 04:50:46;;;;;;;9.87;9.07;;;10.40;99.90;;;;;;5093862;28;20235;-68
2021/11/07 04:53:13;;;;;;;9.70;9.03;;;10.40;99.90;;;;;;5093537;28;20178;-68
2021/11/07 04:55:42;;;;;;;9.73;8.87;;;10.40;99.90;;;;;;5073276;28;20237;-65
2021/11/07 04:58:10;;;;;;;10.43;9.63;;;10.50;99.90;;;;;;5072077;28;20474;-64
2021/11/07 05:00:38;;;;;;;9.10;8.50;;;10.50;99.90;;;;;;5091320;28;20540;-65
2021/11/07 05:03:05;;;;;;;8.87;8.27;;;10.50;99.90;;;;;;5092438;28;20177;-65
2021/11/07 05:05:32;;;;;;;8.50;8.00;;;10.50;99.90;;;;;;5073891;28;20612;-64
2021/11/07 05:07:58;;;;;;;8.47;7.97;;;10.50;99.90;;;;;;5072121;28;20169;-65
2021/11/07 05:10:25;;;;;;;8.03;7.43;;;10.50;99.90;;;;;;5075682;28;20222;-65
2021/11/07 05:12:51;;;;;;;8.50;7.90;;;10.60;99.90;;;;;;5071970;28;20166;-64
2021/11/07 05:15:18;;;;;;;8.37;7.87;;;10.60;99.90;;;;;;5070898;28;20297;-65
2021/11/07 05:17:44;;;;;;;8.30;7.87;;;10.60;99.90;;;;;;5071947;28;20166;-65
2021/11/07 05:20:10;;;;;;;7.70;7.30;;;10.60;99.90;;;;;;5084899;28;20173;-65
2021/11/07 05:22:37;;;;;;;7.87;7.40;;;10.60;99.90;;;;;;5085648;28;20174;-65
2021/11/07 05:25:04;;;;;;;7.90;7.50;;;10.60;99.90;;;;;;5071759;28;20243;-65
2021/11/07 05:27:29;;;;;;;7.87;7.37;;;10.60;99.90;;;;;;5071836;28;20170;-65
2021/11/07 05:29:55;;;;;;;8.80;8.07;;;10.60;99.90;;;;;;5071454;28;20185;-64
2021/11/07 05:32:21;;;;;;;8.80;8.20;;;10.60;99.90;;;;;;5074429;28;20540;-65
2021/11/07 05:34:47;;;;;;;8.70;8.17;;;10.60;99.90;;;;;;5091050;28;20189;-64
2021/11/07 05:37:13;;;;;;;8.10;7.60;;;10.60;99.90;;;;;;5091257;28;20618;-65
2021/11/07 05:39:39;;;;;;;10.00;9.20;;;10.60;99.90;;;;;;5091719;28;20169;-65
2021/11/07 05:42:05;;;;;;;10.37;9.10;;;10.60;99.90;;;;;;5090016;28;20185;-65
2021/11/07 05:44:31;;;;;;;8.73;8.13;;;10.60;99.90;;;;;;5091891;28;20165;-65
2021/11/07 05:46:57;;;;;;;8.60;8.00;;;10.60;99.90;;;;;;5091047;28;20185;-65
2021/11/07 05:49:23;;;;;;;9.37;8.67;;;10.60;99.90;;;;;;5091907;28;20210;-65
2021/11/07 05:51:49;;;;;;;8.90;8.30;;;10.60;99.90;;;;;;5092069;28;20177;-65
2021/11/07 05:54:15;;;;;;;10.20;8.63;;;10.60;99.90;;;;;;5071816;28;20174;-65
2021/11/07 05:56:41;;;;;;;9.23;8.73;;;10.60;99.90;;;;;;5071601;28;20216;-65
2021/11/07 05:59:07;;;;;;;10.27;9.57;;;10.70;99.90;;;;;;5071395;28;20173;-65
2021/11/07 06:01:35;;;;;;;9.97;9.20;;;10.70;99.90;;;;;;5086324;28;20529;-65
2021/11/07 06:04:01;;;;;;;9.37;8.67;;;10.80;99.90;;;;;;5091444;28;20630;-65
2021/11/07 06:06:27;;;;;;;9.00;8.40;;;10.70;99.90;;;;;;5077681;28;20284;-65
2021/11/07 06:08:53;;;;;;;10.00;9.30;;;10.70;99.90;;;;;;5075418;28;20253;-65
2021/11/07 06:11:20;;;;;;;9.43;8.73;;;10.70;99.90;;;;;;5087426;28;20176;-65
2021/11/07 06:13:46;;;;;;;9.60;9.00;;;10.80;99.90;;;;;;5095694;28;20522;-65
2021/11/07 06:16:11;;;;;;;11.10;10.20;;;10.70;99.90;;;;;;5091316;28;20212;-65
2021/11/07 06:18:37;;;;;;;9.10;8.50;;;10.70;99.90;;;;;;5095679;28;20212;-65
2021/11/07 06:21:03;;;;;;;9.10;8.50;;;10.80;99.90;;;;;;5094508;28;20268;-65
2021/11/07 06:23:29;;;;;;;9.47;8.77;;;10.80;99.90;;;;;;5095561;28;20589;-65
2021/11/07 06:25:54;;;;;;;9.47;8.77;;;10.80;99.90;;;;;;5087909;28;20204;-65
2021/11/07 06:28:21;;;;;;;9.20;8.53;;;10.80;99.90;;;;;;5075045;28;20185;-65
2021/11/07 06:30:48;;;;;;;9.77;9.07;;;10.80;99.90;;;;;;5080206;28;20184;-65
2021/11/07 06:33:15;;;;;;;10.63;9.50;;;10.80;99.90;;;;;;5095437;28;20657;-65
2021/11/07 06:35:41;;;;;;;9.83;9.10;;;10.90;99.90;;;;;;5090839;28;20217;-65
2021/11/07 06:38:06;;;;;;;9.33;8.73;;;10.90;99.90;;;;;;5074881;28;20200;-65
2021/11/07 06:40:33;;;;;;;10.57;9.63;;;10.90;99.90;;;;;;5094381;28;20205;-65
2021/11/07 06:42:59;;;;;;;10.03;9.33;;;10.90;99.90;;;;;;5095140;28;20166;-65
2021/11/07 06:45:24;;;;;;;11.33;10.57;;;10.90;99.90;;;;;;5076497;28;20204;-65
2021/11/07 06:47:50;;;;;;;10.00;9.30;;;10.90;99.90;;;;;;5074828;28;20547;-65
2021/11/07 06:50:16;;;;;;;10.10;9.30;;;10.90;99.90;;;;;;5076826;28;20186;-65
2021/11/07 06:52:44;;;;;;;9.70;9.00;;;10.90;99.90;;;;;;5074812;28;20180;-65
2021/11/07 06:55:11;;;;;;;9.27;8.67;;;11.00;99.90;;;;;;5089299;28;20211;-65
2021/11/07 06:57:37;;;;;;;9.80;9.20;;;11.00;99.90;;;;;;5094994;28;20487;-65
2021/11/07 07:00:18;;;;;;;10.10;9.40;;;11.00;99.90;;;;;;5080769;28;20206;-65
2021/11/07 07:02:43;;;;;;;9.23;8.63;;;10.90;99.90;;;;;;5074845;28;20201;-66
2021/11/07 07:05:11;;;;;;;9.07;8.50;;;10.70;99.90;;;;;;5086732;28;20673;-66
2021/11/07 07:07:40;;;;;;;9.10;8.50;;;10.60;99.90;;;;;;5084555;28;20170;-66
2021/11/07 07:10:10;;;;;;;9.67;9.03;;;10.50;99.90;;;;;;5072906;28;20648;-65
2021/11/07 07:12:45;;;;;;;8.90;8.40;;;10.40;99.90;;;;;;5083221;28;20197;-66
2021/11/07 07:15:23;;;;;;;10.83;10.20;;;10.30;99.90;;;;;;5094501;28;20208;-66
2021/11/07 07:18:18;;;;;;;10.33;9.53;;;10.30;99.90;;;;;;5083884;28;20181;-66
2021/11/07 07:26:03;;;;;;;11.50;10.60;;;10.20;99.90;;;;;;5094309;28;20264;-65
2021/11/07 07:33:50;;;;;;;8.97;8.27;;;10.20;99.90;;;;;;5090155;28;20603;-65
2021/11/07 07:36:15;;;;;;;10.07;9.20;;;10.20;99.90;;;;;;5081557;28;20292;-65
2021/11/07 07:38:41;;;;;;;10.73;9.90;;;10.20;99.90;;;;;;5074610;28;20258;-65
2021/11/07 07:41:07;;;;;;;10.27;9.57;;;10.30;99.90;;;;;;5084517;28;20173;-65
2021/11/07 07:43:33;;;;;;;11.60;10.70;;;10.30;99.90;;;;;;5093201;28;20169;-65
2021/11/07 07:46:04;;;;;;;10.47;9.70;;;10.30;99.90;;;;;;5084475;28;20674;-65
2021/11/07 07:48:36;;;;;;;10.87;10.07;;;10.30;99.90;;;;;;5073657;28;20522;-65
2021/11/07 07:51:01;;;;;;;11.10;10.30;;;10.30;99.90;;;;;;5080845;28;20182;-65
2021/11/07 07:53:28;;;;;;;9.90;9.20;;;10.30;99.90;;;;;;5093920;28;20677;-66
2021/11/07 07:55:53;;;;;;;10.70;9.80;;;10.30;99.90;;;;;;5089488;28;20258;-66
2021/11/07 07:58:20;;;;;;;10.53;9.57;;;10.30;99.90;;;;;;5095768;28;20605;-65
2021/11/07 08:00:45;;;;;;;10.10;9.40;;;10.30;99.90;;;;;;5104112;28;20268;-65
2021/11/07 08:03:11;;;;;;;10.60;9.87;;;10.40;99.90;;;;;;5077373;28;20213;-65
2021/11/07 08:05:36;;;;;;;10.67;9.77;;;10.40;99.90;;;;;;5110044;28;20217;-66
2021/11/07 08:08:02;;;;;;;10.07;9.37;;;10.40;99.90;;;;;;5110431;28;20186;-66
2021/11/07 08:10:28;;;;;;;11.37;10.37;;;10.40;99.90;;;;;;5093524;28;20235;-66
2021/11/07 08:12:54;;;;;;;10.97;10.07;;;10.50;99.90;;;;;;5092141;28;20246;-65
2021/11/07 08:15:20;;;;;;;10.67;9.83;;;10.50;99.90;;;;;;5073360;28;20663;-65
2021/11/07 08:17:45;;;;;;;10.77;9.97;;;10.60;99.90;;;;;;5073242;28;20566;-66
2021/11/07 08:20:12;;;;;;;9.70;9.00;;;10.60;99.90;;;;;;5091733;28;20552;-65
2021/11/07 08:22:41;;;;;;;10.17;9.40;;;10.70;99.90;;;;;;5093277;28;20178;-66
2021/11/07 08:25:13;;;;;;;10.47;9.67;;;10.70;99.90;;;;;;5074820;28;20209;-66
2021/11/07 08:27:41;;;;;;;11.23;10.23;;;10.80;99.90;;;;;;5072969;28;20185;-66
2021/11/07 08:30:09;;;;;;;10.77;9.93;;;10.80;99.90;;;;;;5089269;28;20251;-66
2021/11/07 08:32:35;;;;;;;11.47;10.20;;;10.90;99.90;;;;;;5078471;28;20542;-66
2021/11/07 08:35:00;;;;;;;10.80;10.00;;;10.90;99.90;;;;;;5098220;28;20212;-66
2021/11/07 08:37:50;;;;;;;11.03;10.03;;;11.00;99.90;;;;;;5081164;28;20220;-66
2021/11/07 08:40:21;;;;;;;10.70;9.90;;;11.00;99.90;;;;;;5072151;28;20182;-66
2021/11/07 08:42:57;;;;;;;10.10;9.33;;;11.00;99.90;;;;;;5080680;28;20171;-66
2021/11/07 09:09:22;;;;;;;11.63;9.47;;;11.40;99.90;;;;;;5084662;28;20182;-66
2021/11/07 09:11:53;;;;;;;10.47;9.63;;;11.30;99.90;;;;;;5072115;28;20519;-66
2021/11/07 09:14:22;;;;;;;10.87;9.87;;;11.40;99.90;;;;;;5078318;28;20177;-66
2021/11/07 09:16:50;;;;;;;11.20;10.30;;;11.40;99.90;;;;;;5090720;28;20212;-65
2021/11/07 09:19:21;;;;;;;9.53;7.87;;;11.40;99.90;;;;;;5086705;28;20170;-65
2021/11/07 09:21:51;;;;;;;9.13;8.53;;;11.40;99.90;;;;;;5072110;28;20217;-65
2021/11/07 09:24:32;;;;;;;8.43;7.80;;;11.50;99.90;;;;;;5076639;28;20173;-65
2021/11/07 09:27:00;;;;;;;7.97;7.37;;;11.50;99.90;;;;;;5071726;28;20259;-65
2021/11/07 09:29:47;;;;;;;9.27;8.33;;;11.50;99.90;;;;;;5087111;28;20504;-65
2021/11/07 09:37:42;;;;;;;9.33;8.07;;;11.60;99.90;;;;;;5071725;28;20194;-65
2021/11/07 09:40:13;;;;;;;9.07;8.27;;;11.60;99.90;;;;;;5090833;28;20173;-65
2021/11/07 09:47:52;;;;;;;6.80;6.30;;;12.00;99.90;;;;;;5071570;28;20684;-65
2021/11/07 09:50:19;;;;;;;7.90;6.77;;;12.30;99.90;;;;;;5071138;28;20178;-65
2021/11/07 09:52:49;;;;;;;7.37;6.87;;;12.40;99.90;;;;;;5071591;28;20178;-65
2021/11/07 09:55:17;;;;;;;8.57;7.87;;;12.60;99.90;;;;;;5110496;22;20747;-65
2021/11/07 09:57:43;;;;;;;8.73;6.93;;;12.70;99.90;;;;;;5071135;28;20182;-65
2021/11/07 10:00:14;;;;;;;8.10;7.43;;;12.80;99.90;;;;;;5070494;28;20178;-64
2021/11/07 10:02:40;;;;;;;7.83;7.03;;;12.80;99.90;;;;;;5071322;28;20162;-64
2021/11/07 10:05:08;;;;;;;8.87;7.67;;;12.80;99.90;;;;;;5071512;28;20186;-64
2021/11/07 10:07:37;;;;;;;9.63;7.30;;;12.70;99.90;;;;;;5091668;28;20197;-65
2021/11/07 10:10:24;;;;;;;7.60;6.70;;;12.70;99.90;;;;;;5079826;28;20605;-66
2021/11/07 10:12:56;;;;;;;7.17;6.70;;;12.50;99.90;;;;;;5071100;28;20211;-64
2021/11/07 10:15:33;;;;;;;7.40;6.70;;;12.40;99.90;;;;;;5081827;28;20209;-64
2021/11/07 10:18:05;;;;;;;7.13;6.63;;;12.30;99.90;;;;;;5091103;28;20174;-65
2021/11/07 10:20:42;;;;;;;9.30;6.77;;;12.20;99.90;;;;;;5079088;28;20331;-65
2021/11/07 10:23:12;;;;;;;7.50;6.90;;;12.00;99.90;;;;;;5052871;28;20181;-65
2021/11/07 10:28:45;;;;;;;9.27;8.43;;;11.80;99.90;;;;;;5091144;28;20174;-65
2021/11/07 10:31:24;;;;;;;7.83;7.13;;;11.80;99.90;;;;;;5074384;28;20182;-65
2021/11/07 10:42:24;;;;;;;9.27;8.37;;;11.80;99.90;;;;;;5073062;28;20189;-65
2021/11/07 10:52:49;;;;;;;7.73;7.07;;;11.70;99.90;;;;;;5071805;28;20545;-66
2021/11/07 10:55:19;;;;;;;7.60;7.00;;;11.70;99.90;;;;;;5076445;28;20193;-65
2021/11/07 10:57:52;;;;;;;9.07;8.07;;;11.70;99.90;;;;;;5094771;28;20169;-65
2021/11/07 11:00:47;;;;;;;7.20;6.70;;;11.70;99.90;;;;;;5094342;28;20173;-64
2021/11/07 11:03:18;;;;;;;7.77;7.07;;;11.70;99.90;;;;;;5094602;28;20172;-65
2021/11/07 11:06:12;;;;;;;8.73;7.93;;;11.80;99.90;;;;;;5094718;28;20186;-66
2021/11/07 11:08:56;;;;;;;8.37;7.33;;;11.90;99.90;;;;;;5094554;28;20197;-64
2021/11/07 11:11:38;;;;;;;7.60;7.10;;;12.00;99.90;;;;;;5093633;28;20176;-65
2021/11/07 11:14:15;;;;;;;8.23;7.50;;;12.00;99.90;;;;;;5094507;28;20203;-65
2021/11/07 11:19:54;;;;;;;7.97;6.87;;;12.00;99.90;;;;;;5094130;28;20165;-64
2021/11/07 11:22:48;;;;;;;7.60;6.87;;;11.90;99.90;;;;;;5094380;28;20180;-64
2021/11/07 11:25:40;;;;;;;7.43;6.43;;;11.80;99.90;;;;;;5094135;28;20238;-64
2021/11/07 11:28:32;;;;;;;10.37;7.87;;;11.60;99.90;;;;;;5094359;28;20174;-65
2021/11/07 11:31:13;;;;;;;7.43;6.90;;;11.80;99.90;;;;;;5093938;28;20162;-65
2021/11/07 11:33:43;;;;;;;6.57;6.07;;;12.40;99.90;;;;;;5094259;28;20180;-65
2021/11/07 11:36:33;;;;;;;6.50;5.90;;;12.90;99.90;;;;;;5093850;28;20293;-66
2021/11/07 11:39:14;;;;;;;8.70;5.87;;;13.50;99.90;;;;;;5093746;28;20162;-66
2021/11/07 11:42:01;;;;;;;6.20;5.77;;;13.90;99.90;;;;;;5093768;28;20251;-65
2021/11/07 11:44:28;;;;;;;6.27;5.70;;;14.00;99.90;;;;;;5093971;28;20169;-64
2021/11/07 11:47:14;;;;;;;6.73;6.10;;;13.70;99.90;;;;;;5093801;28;20262;-65
2021/11/07 11:52:24;;;;;;;7.03;6.20;;;13.20;99.90;;;;;;5093740;28;20684;-65
2021/11/07 12:03:01;;;;;;;7.17;6.70;;;12.60;99.90;;;;;;5093710;28;20169;-65
2021/11/07 12:05:39;;;;;;;6.63;6.00;;;12.50;99.90;;;;;;5092641;28;20197;-65
2021/11/07 12:08:10;;;;;;;11.27;6.80;;;12.40;99.90;;;;;;5093869;28;20181;-65
2021/11/07 12:10:48;;;;;;;8.30;7.47;;;12.40;99.90;;;;;;5092238;28;20173;-66
2021/11/07 12:13:48;;;;;;;6.90;6.30;;;12.30;99.90;;;;;;5093456;28;20183;-65
2021/11/07 12:16:23;;;;;;;6.70;6.20;;;12.40;99.90;;;;;;5093339;28;20209;-66
2021/11/07 12:19:09;;;;;;;7.03;6.33;;;12.40;99.90;;;;;;5093530;28;20161;-66
2021/11/07 12:21:57;;;;;;;8.00;6.53;;;12.30;99.90;;;;;;5093295;28;20165;-65
2021/11/07 12:24:47;;;;;;;7.20;6.50;;;12.30;99.90;;;;;;5093252;28;20162;-65
2021/11/07 12:27:40;;;;;;;6.47;5.87;;;12.30;99.90;;;;;;5092975;28;20190;-66
2021/11/07 12:30:15;;;;;;;6.37;5.87;;;12.40;99.90;;;;;;5092769;28;20215;-64
2021/11/07 12:32:46;;;;;;;11.47;6.50;;;13.00;99.90;;;;;;5091812;28;20168;-65
2021/11/07 12:35:25;;;;;;;6.63;6.10;;;13.20;99.90;;;;;;5092844;28;20259;-65
2021/11/07 12:41:12;;;;;;;9.47;6.07;;;13.10;99.90;;;;;;5091893;28;20173;-64
2021/11/07 12:43:47;;;;;;;6.37;5.87;;;12.90;99.90;;;;;;5092886;28;20558;-65
2021/11/07 12:49:16;;;;;;;8.37;6.30;;;12.90;99.90;;;;;;5050427;28;20242;-64
2021/11/07 12:51:44;;;;;;;7.30;6.67;;;12.90;99.90;;;;;;5092621;28;20672;-66
2021/11/07 12:54:18;;;;;;;8.03;6.97;;;12.90;99.90;;;;;;5092623;28;20256;-65
2021/11/07 12:56:49;;;;;;;9.33;6.00;;;12.90;99.90;;;;;;5092239;28;20205;-65
2021/11/07 12:59:19;;;;;;;8.53;7.57;;;12.80;99.90;;;;;;5092282;28;20161;-64
2021/11/07 13:01:52;;;;;;;7.00;6.30;;;12.80;99.90;;;;;;5092516;28;20189;-65
2021/11/07 13:04:19;;;;;;;7.37;6.40;;;12.90;99.90;;;;;;5092470;28;20220;-65
2021/11/07 13:06:47;;;;;;;9.37;6.40;;;12.90;99.90;;;;;;5092274;28;20654;-65
2021/11/07 13:09:14;;;;;;;8.90;6.43;;;12.90;99.90;;;;;;5092130;28;20166;-65
2021/11/07 13:11:43;;;;;;;6.47;5.97;;;12.90;99.90;;;;;;5091461;28;20530;-66
2021/11/07 13:14:20;;;;;;;6.20;5.57;;;12.80;99.90;;;;;;5092200;28;20181;-65
2021/11/07 13:17:17;;;;;;;7.07;6.37;;;12.80;99.90;;;;;;5091876;28;20201;-65
2021/11/07 13:27:44;;;;;;;10.00;5.87;;;13.60;99.90;;;;;;5036749;28;20179;-66
2021/11/07 13:30:16;;;;;;;7.03;6.43;;;13.60;99.90;;;;;;5091681;28;20180;-66
2021/11/07 13:32:42;;;;;;;6.20;5.87;;;13.40;99.90;;;;;;5091111;28;20295;-67
2021/11/07 13:35:16;;;;;;;8.67;6.47;;;13.40;99.90;;;;;;5092020;28;20672;-65
2021/11/07 13:37:51;;;;;;;5.27;5.03;;;13.50;99.90;;;;;;5073863;28;20528;-65
2021/11/07 13:40:25;;;;;;;6.20;5.77;;;13.50;99.90;;;;;;5091101;28;20531;-67
2021/11/07 13:42:52;;;;;;;9.83;6.90;;;13.50;99.90;;;;;;5091791;28;20173;-65
2021/11/07 13:45:23;;;;;;;7.13;6.50;;;13.30;99.90;;;;;;5091857;28;20255;-67
2021/11/07 13:47:50;;;;;;;8.80;6.73;;;12.90;99.90;;;;;;5092378;28;20601;-67
2021/11/07 13:50:20;;;;;;;6.10;5.70;;;12.90;99.90;;;;;;5091677;28;20250;-65
2021/11/07 13:52:46;;;;;;;6.60;6.00;;;13.00;99.90;;;;;;5091680;28;20665;-64
2021/11/07 13:55:18;;;;;;;9.13;6.47;;;13.20;99.90;;;;;;5091488;28;20197;-65
2021/11/07 13:57:45;;;;;;;8.53;6.70;;;13.40;99.90;;;;;;5091850;28;20254;-65
2021/11/07 14:00:15;;;;;;;7.23;6.40;;;13.20;99.90;;;;;;5091446;28;20541;-67
2021/11/07 14:02:46;;;;;;;10.27;5.60;;;13.00;99.90;;;;;;5091640;28;20197;-64
2021/11/07 14:05:12;;;;;;;8.63;5.83;;;12.80;99.90;;;;;;5091552;28;20169;-65
2021/11/07 14:07:40;;;;;;;6.17;5.70;;;12.80;99.90;;;;;;5091511;28;20711;-65
2021/11/07 14:10:15;;;;;;;6.10;5.70;;;12.70;99.90;;;;;;5091196;28;20169;-64
2021/11/07 14:12:45;;;;;;;45.40;24.70;;;12.50;99.90;;;;;;5090748;28;20177;-65
2021/11/07 14:15:22;;;;;;;8.47;6.60;;;12.30;99.90;;;;;;5091473;28;20190;-65
2021/11/07 14:17:50;;;;;;;9.47;6.40;;;12.10;99.90;;;;;;5091554;28;20168;-66
2021/11/07 14:20:37;;;;;;;6.77;6.10;;;12.10;99.90;;;;;;5091287;28;20579;-66
2021/11/07 14:23:20;;;;;;;10.13;5.70;;;12.20;99.90;;;;;;5091633;28;20252;-65
2021/11/07 14:25:59;;;;;;;8.30;7.40;;;12.20;99.90;;;;;;5091403;28;20189;-65
2021/11/07 14:28:39;;;;;;;6.53;5.80;;;12.20;99.90;;;;;;5093317;28;20197;-65
2021/11/07 14:31:15;;;;;;;9.23;6.20;;;12.40;99.90;;;;;;5095269;28;20165;-64
2021/11/07 14:33:49;;;;;;;6.60;6.10;;;12.30;99.90;;;;;;5094440;28;20576;-67
2021/11/07 14:36:24;;;;;;;7.53;6.67;;;12.20;99.90;;;;;;5095346;28;20201;-67
2021/11/07 14:39:01;;;;;;;6.50;5.90;;;12.10;99.90;;;;;;5095405;28;20161;-66
2021/11/07 14:41:34;;;;;;;6.80;6.30;;;11.90;99.90;;;;;;5095481;28;20203;-66
2021/11/07 14:44:15;;;;;;;7.37;6.80;;;11.80;99.90;;;;;;5095150;28;20257;-66
2021/11/07 14:46:54;;;;;;;6.43;5.93;;;11.80;99.90;;;;;;5095023;28;20193;-65
2021/11/07 14:49:43;;;;;;;9.30;6.97;;;11.70;99.90;;;;;;5094905;28;20228;-66
2021/11/07 14:55:35;;;;;;;11.40;7.23;;;11.60;99.90;;;;;;5095192;28;20200;-67
2021/11/07 15:03:14;;;;;;;7.40;6.50;;;11.30;99.90;;;;;;5094764;28;20283;-66
2021/11/07 15:05:43;;;;;;;7.03;6.33;;;11.20;99.90;;;;;;5094791;28;20200;-64
2021/11/07 15:16:38;;;;;;;8.17;6.40;;;10.70;99.90;;;;;;5094964;28;20205;-66
2021/11/07 15:19:09;;;;;;;7.67;6.33;;;10.60;99.90;;;;;;5094289;28;20626;-67